createdAt,value
2022-11-25T00:01:06.516Z,20.83
2022-11-25T00:03:32.876Z,18.15
2022-11-25T00:06:07.759Z,19.35
2022-11-25T00:08:34.078Z,14.27
2022-11-25T00:11:00.977Z,19.90
2022-11-25T00:13:27.307Z,13.38
2022-11-25T00:15:53.559Z,20.80
2022-11-25T00:18:19.962Z,12.40
2022-11-25T00:20:46.278Z,17.83
2022-11-25T00:23:12.622Z,22.00
2022-11-25T00:25:38.969Z,19.50
2022-11-25T00:28:05.282Z,17.35
2022-11-25T00:30:31.655Z,17.15
2022-11-25T00:32:57.949Z,18.40
2022-11-25T00:35:24.245Z,20.23
2022-11-25T00:37:50.607Z,21.88
2022-11-25T00:40:16.955Z,21.42
2022-11-25T00:43:02.053Z,27.48
2022-11-25T00:45:28.451Z,20.75
2022-11-25T00:47:54.834Z,17.77
2022-11-25T00:50:21.236Z,25.48
2022-11-25T00:52:47.560Z,21.15
2022-11-25T00:55:13.812Z,21.67
2022-11-25T00:57:40.166Z,18.70
2022-11-25T01:00:06.907Z,22.92
2022-11-25T01:02:33.288Z,19.13
2022-11-25T01:04:59.618Z,17.48
2022-11-25T01:07:26.004Z,24.60
2022-11-25T01:09:52.353Z,11.73
2022-11-25T01:12:18.772Z,17.90
2022-11-25T01:14:45.083Z,18.67
2022-11-25T01:17:11.398Z,24.52
2022-11-25T01:19:41.992Z,25.80
2022-11-25T01:22:08.657Z,13.02
2022-11-25T01:24:35.198Z,22.85
2022-11-25T01:27:01.664Z,27.83
2022-11-25T01:29:28.008Z,19.23
2022-11-25T01:31:54.787Z,8.48
2022-11-25T01:34:23.051Z,17.02
2022-11-25T01:36:49.849Z,17.35
2022-11-25T01:39:18.070Z,16.33
2022-11-25T01:41:44.783Z,16.67
2022-11-25T01:44:14.239Z,18.83
2022-11-25T01:46:43.613Z,22.73
2022-11-25T01:49:12.979Z,17.23
2022-11-25T01:51:58.516Z,20.42
2022-11-25T01:54:26.805Z,13.70
2022-11-25T01:56:55.801Z,16.70
2022-11-25T01:59:22.196Z,16.58
2022-11-25T02:01:49.335Z,17.77
2022-11-25T02:04:16.918Z,21.23
2022-11-25T02:06:47.710Z,17.88
2022-11-25T02:09:14.546Z,21.25
2022-11-25T02:11:41.847Z,30.65
2022-11-25T02:14:08.466Z,18.95
2022-11-25T02:16:35.003Z,22.33
2022-11-25T02:19:03.450Z,20.98
2022-11-25T02:21:43.710Z,19.13
2022-11-25T02:24:15.287Z,14.98
2022-11-25T02:26:41.674Z,19.25
2022-11-25T02:29:08.039Z,18.65
2022-11-25T02:31:34.572Z,24.80
2022-11-25T02:34:00.897Z,20.25
2022-11-25T02:36:27.262Z,21.25
2022-11-25T02:38:57.691Z,20.20
2022-11-25T02:41:34.959Z,29.25
2022-11-25T02:44:01.427Z,18.50
2022-11-25T02:46:28.686Z,17.95
2022-11-25T02:49:11.571Z,19.42
2022-11-25T02:51:39.486Z,22.13
2022-11-25T02:54:06.241Z,27.50
2022-11-25T02:56:34.146Z,22.45
2022-11-25T02:59:00.909Z,15.95
2022-11-25T03:01:28.153Z,17.48
2022-11-25T03:03:54.564Z,20.80
2022-11-25T03:06:20.830Z,20.65
2022-11-25T03:08:47.309Z,17.10
2022-11-25T03:11:13.633Z,26.90
2022-11-25T03:13:39.984Z,17.73
2022-11-25T03:16:06.520Z,18.90
2022-11-25T03:18:32.919Z,29.70
2022-11-25T03:20:59.424Z,20.13
2022-11-25T03:23:26.227Z,17.60
2022-11-25T03:25:52.735Z,24.08
2022-11-25T03:28:18.979Z,22.52
2022-11-25T03:30:45.341Z,12.25
2022-11-25T03:33:11.687Z,19.20
2022-11-25T03:35:38.110Z,22.23
2022-11-25T03:38:04.694Z,22.13
2022-11-25T03:40:31.129Z,21.80
2022-11-25T03:42:57.458Z,18.38
2022-11-25T03:45:23.854Z,22.23
2022-11-25T03:47:50.280Z,21.75
2022-11-25T03:50:16.816Z,17.63
2022-11-25T03:52:43.091Z,22.63
2022-11-25T03:55:09.712Z,16.52
2022-11-25T03:57:36.121Z,22.77
2022-11-25T04:00:02.777Z,16.23
2022-11-25T04:02:29.263Z,15.65
2022-11-25T04:04:55.935Z,17.33
2022-11-25T04:07:22.444Z,23.55
2022-11-25T04:09:48.807Z,17.85
2022-11-25T04:12:33.912Z,19.45
2022-11-25T04:15:00.164Z,13.80
2022-11-25T04:17:26.403Z,13.55
2022-11-25T04:19:52.654Z,17.73
2022-11-25T04:22:18.909Z,10.40
2022-11-25T04:24:45.195Z,10.13
2022-11-25T04:27:11.479Z,11.77
2022-11-25T04:29:37.746Z,12.32
2022-11-25T04:32:04.120Z,10.48
2022-11-25T04:34:30.458Z,9.50
2022-11-25T04:36:56.712Z,9.52
2022-11-25T04:39:23.087Z,9.65
2022-11-25T04:41:49.362Z,6.07
2022-11-25T04:44:15.726Z,13.55
2022-11-25T04:46:42.661Z,8.43
2022-11-25T04:49:09.754Z,8.35
2022-11-25T04:51:36.109Z,7.95
2022-11-25T04:54:02.399Z,8.15
2022-11-25T04:56:28.743Z,15.40
2022-11-25T04:59:13.745Z,12.50
2022-11-25T05:01:40.170Z,7.70
2022-11-25T05:04:06.667Z,8.07
2022-11-25T05:06:33.002Z,6.20
2022-11-25T05:08:59.286Z,9.35
2022-11-25T05:11:25.588Z,8.02
2022-11-25T05:13:52.039Z,6.53
2022-11-25T05:16:18.357Z,10.18
2022-11-25T05:18:44.672Z,5.65
2022-11-25T05:21:10.999Z,9.02
2022-11-25T05:23:37.687Z,6.28
2022-11-25T05:26:04.607Z,5.28
2022-11-25T05:28:31.043Z,4.07
2022-11-25T05:30:57.504Z,6.45
2022-11-25T05:33:24.087Z,8.52
2022-11-25T05:36:00.783Z,7.82
2022-11-25T05:38:27.646Z,7.25
2022-11-25T05:40:54.257Z,4.75
2022-11-25T05:43:20.627Z,8.75
2022-11-25T05:45:46.982Z,7.22
2022-11-25T05:48:13.273Z,6.28
2022-11-25T05:50:39.789Z,10.30
2022-11-25T05:53:06.122Z,6.88
2022-11-25T05:55:32.699Z,8.05
2022-11-25T05:57:59.697Z,5.13
2022-11-25T06:00:26.915Z,8.00
2022-11-25T06:02:53.697Z,6.07
2022-11-25T06:05:20.493Z,8.50
2022-11-25T06:07:46.933Z,7.85
2022-11-25T06:10:13.381Z,7.75
2022-11-25T06:12:39.751Z,5.90
2022-11-25T06:15:06.420Z,9.75
2022-11-25T06:17:32.693Z,12.43
2022-11-25T06:19:59.020Z,7.25
2022-11-25T06:22:25.387Z,5.15
2022-11-25T06:24:58.924Z,10.90
2022-11-25T06:27:31.967Z,12.07
2022-11-25T06:30:12.772Z,10.57
2022-11-25T06:32:39.078Z,13.18
2022-11-25T06:35:05.507Z,13.23
2022-11-25T06:37:32.442Z,9.95
2022-11-25T06:39:58.996Z,11.27
2022-11-25T06:42:25.317Z,7.38
2022-11-25T06:44:51.625Z,8.75
2022-11-25T06:47:18.108Z,16.52
2022-11-25T06:49:44.469Z,10.48
2022-11-25T06:52:10.876Z,8.05
2022-11-25T06:54:41.126Z,10.98
2022-11-25T06:57:08.314Z,12.52
2022-11-25T06:59:34.748Z,6.97
2022-11-25T07:02:01.139Z,13.70
2022-11-25T07:04:27.628Z,13.02
2022-11-25T07:06:53.978Z,12.75
2022-11-25T07:09:21.016Z,9.82
2022-11-25T07:11:47.374Z,11.27
2022-11-25T07:14:15.073Z,12.05
2022-11-25T07:16:43.880Z,13.95
2022-11-25T07:19:20.176Z,11.80
2022-11-25T07:21:46.652Z,11.73
2022-11-25T07:24:14.251Z,10.23
2022-11-25T07:26:41.892Z,11.07
2022-11-25T07:29:23.539Z,12.27
2022-11-25T07:31:55.747Z,16.10
2022-11-25T07:34:22.205Z,13.02
2022-11-25T07:36:49.159Z,12.05
2022-11-25T07:39:17.221Z,15.23
2022-11-25T07:41:43.871Z,14.55
2022-11-25T07:44:12.042Z,15.48
2022-11-25T07:46:39.596Z,11.82
2022-11-25T07:49:13.957Z,13.15
2022-11-25T07:51:50.646Z,11.77
2022-11-25T07:54:17.263Z,12.05
2022-11-25T07:56:58.910Z,11.55
2022-11-25T07:59:25.239Z,11.35
2022-11-25T08:01:52.774Z,13.32
2022-11-25T08:04:20.645Z,11.77
2022-11-25T08:06:48.299Z,12.30
2022-11-25T08:09:15.603Z,11.07
2022-11-25T08:11:42.315Z,13.88
2022-11-25T08:14:10.266Z,11.57
2022-11-25T08:16:37.480Z,9.10
2022-11-25T08:19:05.259Z,12.98
2022-11-25T08:21:31.685Z,9.48
2022-11-25T08:23:58.171Z,9.48
2022-11-25T08:26:30.466Z,14.68
2022-11-25T08:28:59.725Z,12.75
2022-11-25T08:31:27.669Z,10.60
2022-11-25T08:33:54.457Z,14.27
2022-11-25T08:36:21.470Z,12.73
2022-11-25T08:38:49.429Z,9.77
2022-11-25T08:41:18.780Z,10.15
2022-11-25T08:43:45.491Z,9.45
2022-11-25T08:46:13.185Z,13.93
2022-11-25T08:48:39.980Z,18.95
2022-11-25T08:51:10.634Z,11.88
2022-11-25T08:53:37.373Z,13.73
2022-11-25T08:56:03.744Z,13.65
2022-11-25T08:58:30.063Z,10.10
2022-11-25T09:00:56.346Z,10.68
2022-11-25T09:03:30.170Z,14.50
2022-11-25T09:05:56.672Z,9.55
2022-11-25T09:08:23.100Z,13.20
2022-11-25T09:10:49.535Z,12.93
2022-11-25T09:13:15.891Z,13.43
2022-11-25T09:15:42.299Z,15.57
2022-11-25T09:18:09.519Z,8.13
2022-11-25T09:20:37.405Z,9.75
2022-11-25T09:23:03.753Z,11.95
2022-11-25T09:25:30.651Z,12.70
2022-11-25T09:27:57.302Z,8.98
2022-11-25T09:30:24.690Z,14.43
2022-11-25T09:32:52.252Z,8.68
2022-11-25T09:35:18.991Z,9.63
2022-11-25T09:37:45.320Z,11.07
2022-11-25T09:40:32.104Z,8.55
2022-11-25T09:43:23.232Z,13.65
2022-11-25T09:46:15.801Z,13.40
2022-11-25T09:48:54.224Z,9.45
2022-11-25T09:51:20.716Z,8.70
2022-11-25T09:53:50.500Z,10.95
2022-11-25T09:56:24.942Z,7.40
2022-11-25T09:58:53.435Z,10.18
2022-11-25T10:01:22.692Z,10.48
2022-11-25T10:03:52.814Z,11.80
2022-11-25T10:06:36.211Z,9.48
2022-11-25T10:09:10.601Z,7.20
2022-11-25T10:11:46.066Z,11.48
2022-11-25T10:14:20.233Z,11.05
2022-11-25T10:17:05.316Z,7.25
2022-11-25T10:19:41.079Z,8.32
2022-11-25T10:22:46.134Z,10.98
2022-11-25T10:25:14.294Z,6.78
2022-11-25T10:28:06.514Z,12.48
2022-11-25T10:30:40.946Z,14.18
2022-11-25T10:33:28.784Z,12.27
2022-11-25T10:36:06.094Z,8.73
2022-11-25T10:38:38.223Z,9.98
2022-11-25T10:41:04.992Z,10.40
2022-11-25T10:43:32.666Z,10.55
2022-11-25T10:46:07.871Z,10.88
2022-11-25T10:48:46.697Z,9.48
2022-11-25T10:51:20.868Z,13.23
2022-11-25T10:54:06.107Z,9.38
2022-11-25T10:56:41.931Z,9.50
2022-11-25T10:59:21.332Z,13.95
2022-11-25T11:01:47.751Z,15.02
2022-11-25T11:04:18.969Z,11.20
2022-11-25T11:06:46.600Z,11.43
2022-11-25T11:09:33.144Z,12.48
2022-11-25T11:12:07.359Z,17.45
2022-11-25T11:14:34.796Z,15.88
2022-11-25T11:17:01.257Z,12.55
2022-11-25T11:19:29.297Z,12.07
2022-11-25T11:21:56.399Z,13.10
2022-11-25T11:24:29.010Z,10.07
2022-11-25T11:27:13.920Z,16.63
2022-11-25T11:29:40.216Z,9.38
2022-11-25T11:32:08.149Z,13.88
2022-11-25T11:34:53.254Z,13.25
2022-11-25T11:37:29.746Z,12.65
2022-11-25T11:40:14.879Z,13.85
2022-11-25T11:43:10.599Z,14.63
2022-11-25T11:45:36.889Z,11.70
2022-11-25T11:48:09.335Z,13.18
2022-11-25T11:50:53.108Z,13.18
2022-11-25T11:53:19.408Z,10.43
2022-11-25T11:56:19.069Z,11.40
2022-11-25T11:58:58.556Z,12.02
2022-11-25T12:01:36.176Z,12.30
2022-11-25T12:04:21.352Z,10.88
2022-11-25T12:07:14.247Z,13.60
2022-11-25T12:09:45.220Z,12.85
2022-11-25T12:12:14.981Z,9.88
2022-11-25T12:14:50.066Z,8.98
2022-11-25T12:17:23.224Z,13.93
2022-11-25T12:20:03.431Z,8.77
2022-11-25T12:22:32.391Z,9.15
2022-11-25T12:24:58.615Z,7.90
2022-11-25T12:27:33.538Z,16.15
2022-11-25T12:30:07.277Z,12.30
2022-11-25T12:32:56.535Z,16.13
2022-11-25T12:35:38.103Z,10.75
2022-11-25T12:38:04.379Z,11.73
2022-11-25T12:40:41.237Z,12.23
2022-11-25T12:43:26.756Z,12.32
2022-11-25T12:46:03.357Z,8.20
2022-11-25T12:48:29.629Z,11.48
2022-11-25T12:51:05.917Z,11.88
2022-11-25T12:53:32.189Z,8.30
2022-11-25T12:56:04.448Z,18.20
2022-11-25T12:58:30.834Z,10.25
2022-11-25T13:01:15.836Z,11.18
2022-11-25T13:03:45.213Z,12.07
2022-11-25T13:06:38.606Z,11.13
2022-11-25T13:09:07.931Z,10.60
2022-11-25T13:11:34.539Z,9.10
2022-11-25T13:14:05.690Z,10.98
2022-11-25T13:16:32.929Z,9.80
2022-11-25T13:18:59.752Z,10.23
2022-11-25T13:21:27.456Z,9.60
2022-11-25T13:23:56.292Z,12.35
2022-11-25T13:26:28.639Z,9.07
2022-11-25T13:28:55.510Z,12.85
2022-11-25T13:31:23.152Z,10.02
2022-11-25T13:33:49.576Z,8.57
2022-11-25T13:36:17.992Z,12.70
2022-11-25T13:38:50.576Z,10.90
2022-11-25T13:41:20.018Z,13.05
2022-11-25T13:44:07.003Z,9.57
2022-11-25T13:46:37.343Z,10.25
2022-11-25T13:49:05.084Z,18.15
2022-11-25T13:51:31.787Z,11.95
2022-11-25T13:54:00.546Z,11.30
2022-11-25T13:56:26.828Z,12.40
2022-11-25T13:59:11.469Z,10.82
2022-11-25T14:01:47.237Z,15.85
2022-11-25T14:04:15.365Z,13.90
2022-11-25T14:06:43.129Z,11.40
2022-11-25T14:09:17.084Z,12.13
2022-11-25T14:12:06.731Z,15.30
2022-11-25T14:14:39.080Z,12.60
2022-11-25T14:17:16.627Z,11.30
2022-11-25T14:20:05.126Z,11.38
2022-11-25T14:22:51.324Z,13.98
2022-11-25T14:25:26.889Z,9.15
2022-11-25T14:28:03.867Z,11.85
2022-11-25T14:30:31.103Z,13.27
2022-11-25T14:33:01.056Z,10.73
2022-11-25T14:35:30.464Z,17.07
2022-11-25T14:38:00.043Z,13.57
2022-11-25T14:40:29.587Z,14.27
2022-11-25T14:43:02.622Z,10.07
2022-11-25T14:45:30.544Z,14.25
2022-11-25T14:47:57.082Z,11.85
2022-11-25T14:50:39.520Z,21.08
2022-11-25T14:53:07.822Z,22.52
2022-11-25T14:55:34.203Z,19.02
2022-11-25T14:58:00.546Z,22.10
2022-11-25T15:00:27.427Z,16.63
2022-11-25T15:02:58.820Z,14.70
2022-11-25T15:05:27.075Z,15.48
2022-11-25T15:07:56.426Z,20.45
2022-11-25T15:10:33.065Z,14.45
2022-11-25T15:13:00.463Z,11.77
2022-11-25T15:15:27.729Z,21.63
2022-11-25T15:17:55.219Z,18.75
2022-11-25T15:20:23.097Z,10.40
2022-11-25T15:22:50.679Z,13.80
2022-11-25T15:25:18.981Z,19.10
2022-11-25T15:27:46.639Z,20.45
2022-11-25T15:30:23.453Z,22.60
2022-11-25T15:32:50.359Z,29.48
2022-11-25T15:35:18.478Z,19.67
2022-11-25T15:37:44.968Z,28.10
2022-11-25T15:40:29.662Z,23.50
2022-11-25T15:43:00.312Z,60.75
2022-11-25T15:45:28.440Z,39.78
2022-11-25T15:47:56.187Z,28.25
2022-11-25T15:50:22.471Z,45.58
2022-11-25T15:52:50.951Z,28.13
2022-11-25T15:55:27.456Z,29.45
2022-11-25T15:57:54.366Z,27.23
2022-11-25T16:00:23.105Z,25.40
2022-11-25T16:02:51.176Z,20.38
2022-11-25T16:05:24.400Z,23.10
2022-11-25T16:07:50.865Z,17.38
2022-11-25T16:10:26.416Z,26.83
2022-11-25T16:13:13.084Z,33.53
2022-11-25T16:15:46.645Z,29.80
2022-11-25T16:18:38.526Z,24.60
2022-11-25T16:21:03.460Z,24.20
2022-11-25T16:23:30.024Z,23.38
2022-11-25T16:25:58.681Z,24.85
2022-11-25T16:28:25.274Z,25.20
2022-11-25T16:30:57.764Z,25.20
2022-11-25T16:33:25.745Z,18.58
2022-11-25T16:35:52.166Z,12.55
2022-11-25T16:38:18.565Z,21.55
2022-11-25T16:40:45.817Z,13.93
2022-11-25T16:43:26.270Z,17.40
2022-11-25T16:45:53.476Z,22.38
2022-11-25T16:48:21.551Z,16.58
2022-11-25T16:50:48.533Z,15.25
2022-11-25T16:53:14.927Z,16.67
2022-11-25T16:55:42.473Z,17.17
2022-11-25T16:58:16.873Z,11.98
2022-11-25T17:00:43.948Z,24.65
2022-11-25T17:03:11.792Z,33.33
2022-11-25T17:05:38.207Z,41.00
2022-11-25T17:08:04.616Z,38.28
2022-11-25T17:10:30.989Z,36.95
2022-11-25T17:12:57.298Z,29.40
2022-11-25T17:15:27.197Z,31.33
2022-11-25T17:17:53.802Z,27.53
2022-11-25T17:20:25.074Z,36.50
2022-11-25T17:22:52.168Z,35.38
2022-11-25T17:25:18.453Z,21.98
2022-11-25T17:27:46.117Z,23.95
2022-11-25T17:30:25.568Z,19.85
2022-11-25T17:32:56.291Z,20.60
2022-11-25T17:35:22.724Z,16.60
2022-11-25T17:37:49.129Z,17.40
2022-11-25T17:40:15.691Z,25.48
2022-11-25T17:42:42.505Z,14.73
2022-11-25T17:45:16.165Z,13.90
2022-11-25T17:47:42.878Z,12.90
2022-11-25T17:50:19.725Z,23.00
2022-11-25T17:52:46.638Z,18.48
2022-11-25T17:55:13.353Z,19.25
2022-11-25T17:57:39.940Z,24.92
2022-11-25T18:00:11.404Z,16.60
2022-11-25T18:02:37.762Z,16.40
2022-11-25T18:05:10.801Z,21.73
2022-11-25T18:07:37.435Z,18.65
2022-11-25T18:10:04.096Z,15.77
2022-11-25T18:12:30.904Z,18.00
2022-11-25T18:14:57.551Z,19.50
2022-11-25T18:17:24.386Z,16.45
2022-11-25T18:19:54.949Z,14.75
2022-11-25T18:22:24.344Z,16.70
2022-11-25T18:24:51.414Z,17.02
2022-11-25T18:27:28.316Z,16.48
2022-11-25T18:29:55.403Z,16.05
2022-11-25T18:32:23.447Z,16.60
2022-11-25T18:34:50.041Z,15.52
2022-11-25T18:37:16.348Z,16.60
2022-11-25T18:39:42.671Z,18.15
2022-11-25T18:42:15.919Z,13.45
2022-11-25T18:44:44.517Z,21.00
2022-11-25T18:47:11.657Z,14.18
2022-11-25T18:49:38.163Z,12.55
2022-11-25T18:52:04.559Z,16.02
2022-11-25T18:54:30.935Z,12.98
2022-11-25T18:56:57.349Z,14.23
2022-11-25T18:59:27.433Z,19.88
2022-11-25T19:01:54.166Z,15.70
2022-11-25T19:04:20.596Z,19.20
2022-11-25T19:06:47.079Z,19.90
2022-11-25T19:09:13.450Z,20.65
2022-11-25T19:11:41.672Z,21.48
2022-11-25T19:14:13.038Z,22.42
2022-11-25T19:16:39.707Z,12.00
2022-11-25T19:19:06.112Z,13.98
2022-11-25T19:21:32.788Z,14.88
2022-11-25T19:24:00.039Z,17.27
2022-11-25T19:26:28.884Z,19.65
2022-11-25T19:28:59.229Z,23.67
2022-11-25T19:31:26.459Z,13.80
2022-11-25T19:33:52.904Z,15.18
2022-11-25T19:36:22.351Z,15.45
2022-11-25T19:38:49.268Z,14.70
2022-11-25T19:41:15.593Z,13.30
2022-11-25T19:43:41.951Z,19.13
2022-11-25T19:46:29.164Z,18.25
2022-11-25T19:48:57.832Z,18.75
2022-11-25T19:51:25.020Z,54.45
2022-11-25T19:53:52.623Z,28.77
2022-11-25T19:56:22.477Z,17.52
2022-11-25T19:58:48.860Z,16.98
2022-11-25T20:01:15.654Z,22.80
2022-11-25T20:03:47.972Z,20.88
2022-11-25T20:06:15.680Z,18.95
2022-11-25T20:08:42.006Z,22.00
2022-11-25T20:11:10.311Z,16.67
2022-11-25T20:13:36.601Z,26.73
2022-11-25T20:16:03.193Z,13.13
2022-11-25T20:18:29.852Z,24.40
2022-11-25T20:21:04.761Z,20.95
2022-11-25T20:23:41.678Z,23.02
2022-11-25T20:26:18.265Z,16.95
2022-11-25T20:28:44.564Z,17.00
2022-11-25T20:31:12.562Z,18.08
2022-11-25T20:33:39.812Z,13.88
2022-11-25T20:36:07.211Z,22.45
2022-11-25T20:38:35.245Z,17.10
2022-11-25T20:41:01.779Z,21.45
2022-11-25T20:43:32.861Z,19.23
2022-11-25T20:46:00.155Z,17.75
2022-11-25T20:48:27.200Z,15.68
2022-11-25T20:50:53.775Z,21.40
2022-11-25T20:53:21.547Z,14.75
2022-11-25T20:55:48.324Z,18.63
2022-11-25T20:58:22.458Z,23.85
2022-11-25T21:00:52.941Z,14.82
2022-11-25T21:03:23.430Z,22.20
2022-11-25T21:05:50.118Z,22.85
2022-11-25T21:08:18.996Z,19.65
2022-11-25T21:10:46.795Z,26.33
2022-11-25T21:13:17.863Z,26.30
2022-11-25T21:15:44.352Z,34.42
2022-11-25T21:18:11.085Z,24.30
2022-11-25T21:20:38.164Z,25.63
2022-11-25T21:23:07.425Z,29.15
2022-11-25T21:25:34.671Z,40.28
2022-11-25T21:28:01.698Z,21.45
2022-11-25T21:30:30.781Z,21.20
2022-11-25T21:32:58.518Z,18.00
2022-11-25T21:35:27.412Z,23.63
2022-11-25T21:37:53.752Z,16.95
2022-11-25T21:40:32.531Z,17.98
2022-11-25T21:42:59.472Z,12.65
2022-11-25T21:45:25.996Z,18.17
2022-11-25T21:47:52.384Z,17.77
2022-11-25T21:50:19.432Z,17.08
2022-11-25T21:52:45.894Z,21.02
2022-11-25T21:55:13.038Z,19.13
2022-11-25T21:57:39.613Z,16.92
2022-11-25T22:00:16.640Z,23.42
2022-11-25T22:02:44.185Z,29.95
2022-11-25T22:05:14.860Z,27.67
2022-11-25T22:07:41.421Z,27.30
2022-11-25T22:10:08.007Z,18.85
2022-11-25T22:12:40.904Z,29.38
2022-11-25T22:15:12.111Z,21.13
2022-11-25T22:17:38.439Z,21.05
2022-11-25T22:20:05.340Z,19.65
2022-11-25T22:22:32.105Z,29.30
2022-11-25T22:24:58.403Z,28.73
2022-11-25T22:27:25.894Z,28.27
2022-11-25T22:29:52.406Z,24.08
2022-11-25T22:32:18.729Z,23.65
2022-11-25T22:34:45.133Z,22.52
2022-11-25T22:37:15.925Z,28.08
2022-11-25T22:39:42.253Z,22.75
2022-11-25T22:42:10.245Z,24.08
2022-11-25T22:44:39.664Z,16.77
2022-11-25T22:47:06.838Z,26.17
2022-11-25T22:49:43.217Z,22.63
2022-11-25T22:52:15.644Z,22.05
2022-11-25T22:54:41.960Z,24.67
2022-11-25T22:57:09.292Z,25.38
2022-11-25T22:59:35.616Z,26.75
2022-11-25T23:02:02.194Z,27.38
2022-11-25T23:04:28.761Z,27.90
2022-11-25T23:06:55.615Z,22.55
2022-11-25T23:09:21.946Z,27.33
2022-11-25T23:11:48.307Z,25.98
2022-11-25T23:14:14.686Z,23.27
2022-11-25T23:16:41.795Z,27.08
2022-11-25T23:19:16.844Z,22.50
2022-11-25T23:21:44.436Z,25.08
2022-11-25T23:24:14.873Z,23.55
2022-11-25T23:26:41.353Z,26.33
2022-11-25T23:29:08.043Z,21.13
2022-11-25T23:31:35.833Z,25.00
2022-11-25T23:34:03.726Z,26.98
2022-11-25T23:36:38.234Z,23.98
2022-11-25T23:39:04.521Z,27.10
2022-11-25T23:41:32.193Z,21.90
2022-11-25T23:44:01.933Z,28.00
2022-11-25T23:46:32.004Z,28.58
2022-11-25T23:49:00.025Z,24.38
2022-11-25T23:51:27.350Z,21.48
2022-11-25T23:53:54.650Z,24.40
2022-11-25T23:56:21.322Z,29.52
2022-11-25T23:58:47.737Z,20.02
